sensor_id;sensor_type;location;lat;lon;timestamp;temperature;humidity
1812;DHT22;904;47.814;11.134;2024-03-29T00:07:58;6.10;60.30
1812;DHT22;904;47.814;11.134;2024-03-29T00:17:12;5.90;59.70
1812;DHT22;904;47.814;11.134;2024-03-29T00:19:56;5.90;59.90
1812;DHT22;904;47.814;11.134;2024-03-29T00:22:23;5.80;59.90
1812;DHT22;904;47.814;11.134;2024-03-29T00:24:49;5.70;60.20
1812;DHT22;904;47.814;11.134;2024-03-29T00:27:46;5.60;60.80
1812;DHT22;904;47.814;11.134;2024-03-29T00:33:35;5.50;61.60
1812;DHT22;904;47.814;11.134;2024-03-29T00:36:32;5.50;61.40
1812;DHT22;904;47.814;11.134;2024-03-29T00:42:20;5.40;60.80
1812;DHT22;904;47.814;11.134;2024-03-29T00:48:10;5.20;61.90
1812;DHT22;904;47.814;11.134;2024-03-29T01:00:41;5.10;61.00
1812;DHT22;904;47.814;11.134;2024-03-29T01:06:29;4.90;61.30
1812;DHT22;904;47.814;11.134;2024-03-29T01:12:19;4.90;63.10
1812;DHT22;904;47.814;11.134;2024-03-29T01:14:45;4.90;64.10
1812;DHT22;904;47.814;11.134;2024-03-29T01:20:34;4.80;62.20
1812;DHT22;904;47.814;11.134;2024-03-29T01:26:22;4.70;61.90
1812;DHT22;904;47.814;11.134;2024-03-29T01:28:48;4.70;61.80
1812;DHT22;904;47.814;11.134;2024-03-29T01:31:14;4.70;62.40
1812;DHT22;904;47.814;11.134;2024-03-29T01:37:04;4.70;62.30
1812;DHT22;904;47.814;11.134;2024-03-29T01:42:53;4.60;61.90
1812;DHT22;904;47.814;11.134;2024-03-29T01:45:20;4.50;61.30
1812;DHT22;904;47.814;11.134;2024-03-29T01:51:11;4.40;61.50
1812;DHT22;904;47.814;11.134;2024-03-29T02:00:26;4.20;61.90
1812;DHT22;904;47.814;11.134;2024-03-29T02:06:15;4.00;62.00
1812;DHT22;904;47.814;11.134;2024-03-29T02:08:42;4.00;62.60
1812;DHT22;904;47.814;11.134;2024-03-29T02:11:11;4.00;63.10
1812;DHT22;904;47.814;11.134;2024-03-29T02:13:53;4.00;63.70
1812;DHT22;904;47.814;11.134;2024-03-29T02:19:44;4.10;64.40
1812;DHT22;904;47.814;11.134;2024-03-29T02:22:14;4.00;63.20
1812;DHT22;904;47.814;11.134;2024-03-29T02:27:51;4.00;61.80
1812;DHT22;904;47.814;11.134;2024-03-29T02:30:19;4.00;61.30
1812;DHT22;904;47.814;11.134;2024-03-29T02:32:46;3.90;61.10
1812;DHT22;904;47.814;11.134;2024-03-29T02:35:13;3.80;61.60
1812;DHT22;904;47.814;11.134;2024-03-29T02:37:41;3.80;61.80
1812;DHT22;904;47.814;11.134;2024-03-29T02:43:31;3.80;62.80
1812;DHT22;904;47.814;11.134;2024-03-29T02:45:58;3.80;62.20
1812;DHT22;904;47.814;11.134;2024-03-29T02:48:25;3.70;62.10
1812;DHT22;904;47.814;11.134;2024-03-29T02:54:13;3.70;63.20
1812;DHT22;904;47.814;11.134;2024-03-29T03:00:29;3.60;64.00
1812;DHT22;904;47.814;11.134;2024-03-29T03:03:26;3.60;64.40
1812;DHT22;904;47.814;11.134;2024-03-29T03:05:53;3.70;64.60
1812;DHT22;904;47.814;11.134;2024-03-29T03:08:22;3.70;63.90
1812;DHT22;904;47.814;11.134;2024-03-29T03:11:07;3.70;63.20
1812;DHT22;904;47.814;11.134;2024-03-29T03:13:34;3.70;63.40
1812;DHT22;904;47.814;11.134;2024-03-29T03:19:26;3.60;62.90
1812;DHT22;904;47.814;11.134;2024-03-29T03:21:53;3.60;63.10
1812;DHT22;904;47.814;11.134;2024-03-29T03:27:35;3.50;63.80
1812;DHT22;904;47.814;11.134;2024-03-29T03:33:23;3.50;64.10
1812;DHT22;904;47.814;11.134;2024-03-29T03:42:23;3.40;64.10
1812;DHT22;904;47.814;11.134;2024-03-29T03:45:05;3.40;64.70
1812;DHT22;904;47.814;11.134;2024-03-29T03:47:32;3.40;65.20
1812;DHT22;904;47.814;11.134;2024-03-29T03:53:21;3.50;65.80
1812;DHT22;904;47.814;11.134;2024-03-29T04:02:39;3.50;65.10
1812;DHT22;904;47.814;11.134;2024-03-29T04:08:28;3.50;64.70
1812;DHT22;904;47.814;11.134;2024-03-29T04:10:55;3.50;63.90
1812;DHT22;904;47.814;11.134;2024-03-29T04:16:49;3.50;62.50
1812;DHT22;904;47.814;11.134;2024-03-29T04:19:17;3.50;62.70
1812;DHT22;904;47.814;11.134;2024-03-29T04:21:43;3.40;63.00
1812;DHT22;904;47.814;11.134;2024-03-29T04:24:38;3.40;63.50
1812;DHT22;904;47.814;11.134;2024-03-29T04:27:04;3.30;63.30
1812;DHT22;904;47.814;11.134;2024-03-29T04:29:31;3.30;63.80
1812;DHT22;904;47.814;11.134;2024-03-29T04:35:20;3.40;65.40
1812;DHT22;904;47.814;11.134;2024-03-29T04:44:31;3.50;66.10
1812;DHT22;904;47.814;11.134;2024-03-29T04:50:21;3.40;64.90
1812;DHT22;904;47.814;11.134;2024-03-29T04:52:48;3.40;65.30
1812;DHT22;904;47.814;11.134;2024-03-29T04:55:15;3.40;65.20
1812;DHT22;904;47.814;11.134;2024-03-29T04:57:44;3.40;65.20
1812;DHT22;904;47.814;11.134;2024-03-29T05:03:52;3.40;66.40
1812;DHT22;904;47.814;11.134;2024-03-29T05:06:33;3.40;66.90
1812;DHT22;904;47.814;11.134;2024-03-29T05:12:23;3.50;67.50
1812;DHT22;904;47.814;11.134;2024-03-29T05:18:15;3.50;68.50
1812;DHT22;904;47.814;11.134;2024-03-29T05:21:16;3.60;68.00
1812;DHT22;904;47.814;11.134;2024-03-29T05:27:06;3.60;67.70
1812;DHT22;904;47.814;11.134;2024-03-29T05:29:51;3.70;67.60
1812;DHT22;904;47.814;11.134;2024-03-29T05:32:24;3.70;67.10
1812;DHT22;904;47.814;11.134;2024-03-29T05:35:25;3.70;66.80
1812;DHT22;904;47.814;11.134;2024-03-29T05:41:16;3.70;66.80
1812;DHT22;904;47.814;11.134;2024-03-29T05:43:45;3.80;66.90
1812;DHT22;904;47.814;11.134;2024-03-29T05:52:55;4.00;67.10
1812;DHT22;904;47.814;11.134;2024-03-29T05:55:25;3.90;67.80
1812;DHT22;904;47.814;11.134;2024-03-29T05:57:52;3.90;68.10
1812;DHT22;904;47.814;11.134;2024-03-29T06:00:21;3.90;68.40
1812;DHT22;904;47.814;11.134;2024-03-29T06:10:10;4.10;68.80
1812;DHT22;904;47.814;11.134;2024-03-29T06:16:00;4.20;68.80
1812;DHT22;904;47.814;11.134;2024-03-29T06:18:44;4.30;69.10
1812;DHT22;904;47.814;11.134;2024-03-29T06:21:11;4.40;68.80
1812;DHT22;904;47.814;11.134;2024-03-29T06:26:30;4.50;68.40
1812;DHT22;904;47.814;11.134;2024-03-29T06:38:47;5.00;70.50
1812;DHT22;904;47.814;11.134;2024-03-29T06:44:36;5.30;69.30
1812;DHT22;904;47.814;11.134;2024-03-29T06:50:25;5.60;69.00
1812;DHT22;904;47.814;11.134;2024-03-29T06:52:52;5.70;69.30
1812;DHT22;904;47.814;11.134;2024-03-29T06:55:20;5.80;69.70
1812;DHT22;904;47.814;11.134;2024-03-29T06:57:47;6.00;70.00
1812;DHT22;904;47.814;11.134;2024-03-29T07:09:53;7.20;68.60
1812;DHT22;904;47.814;11.134;2024-03-29T07:19:01;7.80;65.40
1812;DHT22;904;47.814;11.134;2024-03-29T07:24:50;8.40;65.20
1812;DHT22;904;47.814;11.134;2024-03-29T07:30:39;9.10;62.80
1812;DHT22;904;47.814;11.134;2024-03-29T07:33:07;9.60;62.50
1812;DHT22;904;47.814;11.134;2024-03-29T07:38:57;10.90;65.50
1812;DHT22;904;47.814;11.134;2024-03-29T07:44:47;13.50;59.80
1812;DHT22;904;47.814;11.134;2024-03-29T07:50:37;15.70;53.80
1812;DHT22;904;47.814;11.134;2024-03-29T07:56:33;18.20;45.60
1812;DHT22;904;47.814;11.134;2024-03-29T07:59:00;19.00;43.50
1812;DHT22;904;47.814;11.134;2024-03-29T08:01:27;19.50;43.90
1812;DHT22;904;47.814;11.134;2024-03-29T08:10:53;21.50;39.90
1812;DHT22;904;47.814;11.134;2024-03-29T08:13:20;22.20;38.10
1812;DHT22;904;47.814;11.134;2024-03-29T08:15:57;22.50;36.10
1812;DHT22;904;47.814;11.134;2024-03-29T08:21:47;23.20;36.50
1812;DHT22;904;47.814;11.134;2024-03-29T08:27:37;23.80;33.70
1812;DHT22;904;47.814;11.134;2024-03-29T08:33:33;24.10;33.30
1812;DHT22;904;47.814;11.134;2024-03-29T08:36:04;23.60;32.80
1812;DHT22;904;47.814;11.134;2024-03-29T08:38:31;23.10;32.10
1812;DHT22;904;47.814;11.134;2024-03-29T08:40:58;22.40;32.10
1812;DHT22;904;47.814;11.134;2024-03-29T08:46:48;21.10;29.90
1812;DHT22;904;47.814;11.134;2024-03-29T08:52:38;19.70;27.50
1812;DHT22;904;47.814;11.134;2024-03-29T08:58:27;18.70;27.30
1812;DHT22;904;47.814;11.134;2024-03-29T09:01:03;18.30;29.10
1812;DHT22;904;47.814;11.134;2024-03-29T09:04:06;18.00;28.30
1812;DHT22;904;47.814;11.134;2024-03-29T09:10:18;17.60;29.80
1812;DHT22;904;47.814;11.134;2024-03-29T09:12:45;17.50;29.80
1812;DHT22;904;47.814;11.134;2024-03-29T09:18:40;17.50;30.00
1812;DHT22;904;47.814;11.134;2024-03-29T09:21:22;17.70;30.90
1812;DHT22;904;47.814;11.134;2024-03-29T09:23:49;18.00;30.90
1812;DHT22;904;47.814;11.134;2024-03-29T09:26:18;18.20;30.90
1812;DHT22;904;47.814;11.134;2024-03-29T09:28:46;18.50;30.70
1812;DHT22;904;47.814;11.134;2024-03-29T09:31:13;18.80;30.90
1812;DHT22;904;47.814;11.134;2024-03-29T09:33:40;19.10;30.40
1812;DHT22;904;47.814;11.134;2024-03-29T09:36:14;19.20;30.70
1812;DHT22;904;47.814;11.134;2024-03-29T09:38:45;19.30;29.90
1812;DHT22;904;47.814;11.134;2024-03-29T09:41:14;19.20;29.90
1812;DHT22;904;47.814;11.134;2024-03-29T09:43:45;19.10;29.70
1812;DHT22;904;47.814;11.134;2024-03-29T09:46:13;19.10;30.40
1812;DHT22;904;47.814;11.134;2024-03-29T09:49:02;19.10;30.30
1812;DHT22;904;47.814;11.134;2024-03-29T09:51:30;19.20;30.30
1812;DHT22;904;47.814;11.134;2024-03-29T09:54:00;19.50;31.00
1812;DHT22;904;47.814;11.134;2024-03-29T09:56:29;19.80;29.60
1812;DHT22;904;47.814;11.134;2024-03-29T09:58:57;20.00;30.00
1812;DHT22;904;47.814;11.134;2024-03-29T10:01:24;20.20;29.90
1812;DHT22;904;47.814;11.134;2024-03-29T10:07:03;20.30;29.90
1812;DHT22;904;47.814;11.134;2024-03-29T10:09:33;20.90;28.10
1812;DHT22;904;47.814;11.134;2024-03-29T10:12:02;21.20;29.60
1812;DHT22;904;47.814;11.134;2024-03-29T10:14:30;21.70;27.70
1812;DHT22;904;47.814;11.134;2024-03-29T10:17:33;21.90;28.20
1812;DHT22;904;47.814;11.134;2024-03-29T10:20:00;22.20;28.40
1812;DHT22;904;47.814;11.134;2024-03-29T10:25:52;22.50;26.40
1812;DHT22;904;47.814;11.134;2024-03-29T10:28:19;22.40;26.70
1812;DHT22;904;47.814;11.134;2024-03-29T10:31:11;22.60;27.20
1812;DHT22;904;47.814;11.134;2024-03-29T10:33:42;22.80;25.80
1812;DHT22;904;47.814;11.134;2024-03-29T10:36:09;23.10;27.60
1812;DHT22;904;47.814;11.134;2024-03-29T10:39:09;23.50;25.30
1812;DHT22;904;47.814;11.134;2024-03-29T10:41:40;23.10;25.20
1812;DHT22;904;47.814;11.134;2024-03-29T10:47:31;22.60;26.30
1812;DHT22;904;47.814;11.134;2024-03-29T10:50:10;22.30;26.00
1812;DHT22;904;47.814;11.134;2024-03-29T10:52:41;22.00;27.20
1812;DHT22;904;47.814;11.134;2024-03-29T10:55:19;22.00;28.00
1812;DHT22;904;47.814;11.134;2024-03-29T10:58:21;22.00;27.30
1812;DHT22;904;47.814;11.134;2024-03-29T11:00:57;22.00;27.70
1812;DHT22;904;47.814;11.134;2024-03-29T11:03:45;22.00;27.50
1812;DHT22;904;47.814;11.134;2024-03-29T11:06:15;21.80;27.70
1812;DHT22;904;47.814;11.134;2024-03-29T11:12:09;21.50;28.50
1812;DHT22;904;47.814;11.134;2024-03-29T11:17:39;21.80;29.20
1812;DHT22;904;47.814;11.134;2024-03-29T11:20:07;22.00;28.10
1812;DHT22;904;47.814;11.134;2024-03-29T11:22:36;22.10;29.00
1812;DHT22;904;47.814;11.134;2024-03-29T11:25:02;22.20;28.20
1812;DHT22;904;47.814;11.134;2024-03-29T11:27:30;22.40;28.50
1812;DHT22;904;47.814;11.134;2024-03-29T11:30:02;22.50;28.20
1812;DHT22;904;47.814;11.134;2024-03-29T11:32:36;22.70;26.80
1812;DHT22;904;47.814;11.134;2024-03-29T11:35:04;22.60;28.50
1812;DHT22;904;47.814;11.134;2024-03-29T11:37:32;22.70;27.20
1812;DHT22;904;47.814;11.134;2024-03-29T11:47:00;23.60;26.90
1812;DHT22;904;47.814;11.134;2024-03-29T11:49:32;24.20;27.40
1812;DHT22;904;47.814;11.134;2024-03-29T11:55:21;24.60;24.90
1812;DHT22;904;47.814;11.134;2024-03-29T12:04:33;25.20;24.90
1812;DHT22;904;47.814;11.134;2024-03-29T12:07:01;25.20;24.30
1812;DHT22;904;47.814;11.134;2024-03-29T12:12:56;25.70;24.10
1812;DHT22;904;47.814;11.134;2024-03-29T12:18:47;26.30;23.60
1812;DHT22;904;47.814;11.134;2024-03-29T12:21:23;26.20;22.30
1812;DHT22;904;47.814;11.134;2024-03-29T12:27:13;25.70;23.20
1812;DHT22;904;47.814;11.134;2024-03-29T12:29:40;25.60;22.90
1812;DHT22;904;47.814;11.134;2024-03-29T12:35:23;25.50;24.50
1812;DHT22;904;47.814;11.134;2024-03-29T12:41:12;25.50;23.20
1812;DHT22;904;47.814;11.134;2024-03-29T12:43:39;25.40;34.30
1812;DHT22;904;47.814;11.134;2024-03-29T12:46:07;25.20;38.00
1812;DHT22;904;47.814;11.134;2024-03-29T12:48:35;25.20;35.80
1812;DHT22;904;47.814;11.134;2024-03-29T12:51:04;25.10;35.50
1812;DHT22;904;47.814;11.134;2024-03-29T12:53:33;24.70;23.80
1812;DHT22;904;47.814;11.134;2024-03-29T12:56:06;24.50;23.20
1812;DHT22;904;47.814;11.134;2024-03-29T12:58:34;24.20;24.80
1812;DHT22;904;47.814;11.134;2024-03-29T13:01:02;24.10;24.90
1812;DHT22;904;47.814;11.134;2024-03-29T13:03:31;23.90;24.70
1812;DHT22;904;47.814;11.134;2024-03-29T13:05:58;23.70;24.80
1812;DHT22;904;47.814;11.134;2024-03-29T13:08:27;23.70;24.30
1812;DHT22;904;47.814;11.134;2024-03-29T13:10:54;23.80;24.80
1812;DHT22;904;47.814;11.134;2024-03-29T13:13:21;23.80;25.60
1812;DHT22;904;47.814;11.134;2024-03-29T13:15:50;23.80;24.90
1812;DHT22;904;47.814;11.134;2024-03-29T13:18:20;23.70;24.90
1812;DHT22;904;47.814;11.134;2024-03-29T13:20:47;23.50;24.10
1812;DHT22;904;47.814;11.134;2024-03-29T13:23:14;23.20;24.70
1812;DHT22;904;47.814;11.134;2024-03-29T13:25:42;23.00;25.70
1812;DHT22;904;47.814;11.134;2024-03-29T13:28:09;22.80;26.20
1812;DHT22;904;47.814;11.134;2024-03-29T13:30:37;22.60;26.20
1812;DHT22;904;47.814;11.134;2024-03-29T13:33:10;22.60;26.40
1812;DHT22;904;47.814;11.134;2024-03-29T13:35:37;22.40;25.90
1812;DHT22;904;47.814;11.134;2024-03-29T13:38:04;22.30;25.70
1812;DHT22;904;47.814;11.134;2024-03-29T13:40:32;22.20;26.20
1812;DHT22;904;47.814;11.134;2024-03-29T13:42:59;22.20;26.60
1812;DHT22;904;47.814;11.134;2024-03-29T13:45:26;22.10;27.00
1812;DHT22;904;47.814;11.134;2024-03-29T13:47:54;22.10;27.20
1812;DHT22;904;47.814;11.134;2024-03-29T13:50:22;22.10;29.20
1812;DHT22;904;47.814;11.134;2024-03-29T13:52:50;22.10;29.50
1812;DHT22;904;47.814;11.134;2024-03-29T13:55:17;22.10;29.00
1812;DHT22;904;47.814;11.134;2024-03-29T13:57:44;22.10;29.50
1812;DHT22;904;47.814;11.134;2024-03-29T14:00:12;22.10;31.10
1812;DHT22;904;47.814;11.134;2024-03-29T14:02:42;22.10;34.40
1812;DHT22;904;47.814;11.134;2024-03-29T14:05:09;22.10;33.90
1812;DHT22;904;47.814;11.134;2024-03-29T14:07:39;22.10;34.30
1812;DHT22;904;47.814;11.134;2024-03-29T14:10:07;21.90;34.80
1812;DHT22;904;47.814;11.134;2024-03-29T14:13:00;21.90;35.00
1812;DHT22;904;47.814;11.134;2024-03-29T14:15:27;21.80;35.10
1812;DHT22;904;47.814;11.134;2024-03-29T14:17:54;21.90;35.60
1812;DHT22;904;47.814;11.134;2024-03-29T14:20:22;21.90;35.40
1812;DHT22;904;47.814;11.134;2024-03-29T14:22:50;21.70;34.20
1812;DHT22;904;47.814;11.134;2024-03-29T14:25:23;21.70;34.80
1812;DHT22;904;47.814;11.134;2024-03-29T14:27:50;21.80;35.30
1812;DHT22;904;47.814;11.134;2024-03-29T14:30:28;21.80;35.00
1812;DHT22;904;47.814;11.134;2024-03-29T14:32:56;21.70;35.20
1812;DHT22;904;47.814;11.134;2024-03-29T14:35:23;21.70;36.00
1812;DHT22;904;47.814;11.134;2024-03-29T14:37:52;21.80;35.70
1812;DHT22;904;47.814;11.134;2024-03-29T14:40:20;21.70;35.20
1812;DHT22;904;47.814;11.134;2024-03-29T14:42:47;21.60;35.80
1812;DHT22;904;47.814;11.134;2024-03-29T14:45:14;21.60;35.70
1812;DHT22;904;47.814;11.134;2024-03-29T14:47:41;21.60;35.80
1812;DHT22;904;47.814;11.134;2024-03-29T14:50:09;21.60;35.50
1812;DHT22;904;47.814;11.134;2024-03-29T14:52:36;21.60;34.90
1812;DHT22;904;47.814;11.134;2024-03-29T14:55:05;21.70;34.40
1812;DHT22;904;47.814;11.134;2024-03-29T14:57:33;21.70;34.50
1812;DHT22;904;47.814;11.134;2024-03-29T15:00:00;21.70;34.70
1812;DHT22;904;47.814;11.134;2024-03-29T15:02:46;21.70;34.80
1812;DHT22;904;47.814;11.134;2024-03-29T15:05:13;21.70;35.40
1812;DHT22;904;47.814;11.134;2024-03-29T15:07:40;21.70;36.10
1812;DHT22;904;47.814;11.134;2024-03-29T15:10:09;21.60;36.00
1812;DHT22;904;47.814;11.134;2024-03-29T15:12:36;21.60;35.70
1812;DHT22;904;47.814;11.134;2024-03-29T15:15:05;21.50;35.20
1812;DHT22;904;47.814;11.134;2024-03-29T15:17:32;21.50;34.40
1812;DHT22;904;47.814;11.134;2024-03-29T15:19:59;21.50;34.50
1812;DHT22;904;47.814;11.134;2024-03-29T15:22:30;21.40;35.20
1812;DHT22;904;47.814;11.134;2024-03-29T15:24:58;21.40;35.80
1812;DHT22;904;47.814;11.134;2024-03-29T15:27:33;21.40;35.60
1812;DHT22;904;47.814;11.134;2024-03-29T15:30:17;21.40;34.60
1812;DHT22;904;47.814;11.134;2024-03-29T15:32:44;21.30;35.30
1812;DHT22;904;47.814;11.134;2024-03-29T15:35:11;21.30;34.90
1812;DHT22;904;47.814;11.134;2024-03-29T15:37:38;21.30;34.30
1812;DHT22;904;47.814;11.134;2024-03-29T15:40:07;21.30;34.10
1812;DHT22;904;47.814;11.134;2024-03-29T15:42:37;21.30;34.20
1812;DHT22;904;47.814;11.134;2024-03-29T15:45:07;21.40;33.00
1812;DHT22;904;47.814;11.134;2024-03-29T15:47:36;21.40;31.90
1812;DHT22;904;47.814;11.134;2024-03-29T15:50:16;21.40;32.80
1812;DHT22;904;47.814;11.134;2024-03-29T15:52:43;21.40;34.20
1812;DHT22;904;47.814;11.134;2024-03-29T15:55:10;21.40;34.00
1812;DHT22;904;47.814;11.134;2024-03-29T15:57:39;21.40;34.80
1812;DHT22;904;47.814;11.134;2024-03-29T16:06:51;21.20;33.80
1812;DHT22;904;47.814;11.134;2024-03-29T16:12:41;21.10;33.20
1812;DHT22;904;47.814;11.134;2024-03-29T16:18:31;21.10;32.80
1812;DHT22;904;47.814;11.134;2024-03-29T16:24:18;21.00;33.60
1812;DHT22;904;47.814;11.134;2024-03-29T16:26:45;20.90;33.50
1812;DHT22;904;47.814;11.134;2024-03-29T16:29:49;20.80;33.10
1812;DHT22;904;47.814;11.134;2024-03-29T16:32:17;20.70;33.10
1812;DHT22;904;47.814;11.134;2024-03-29T16:34:43;20.60;32.90
1812;DHT22;904;47.814;11.134;2024-03-29T16:37:10;20.60;32.80
1812;DHT22;904;47.814;11.134;2024-03-29T16:42:58;20.60;32.20
1812;DHT22;904;47.814;11.134;2024-03-29T16:48:48;20.50;32.70
1812;DHT22;904;47.814;11.134;2024-03-29T16:55:05;20.40;32.60
1812;DHT22;904;47.814;11.134;2024-03-29T16:57:34;20.40;32.80
1812;DHT22;904;47.814;11.134;2024-03-29T17:00:00;20.40;32.10
1812;DHT22;904;47.814;11.134;2024-03-29T17:05:50;20.30;33.30
1812;DHT22;904;47.814;11.134;2024-03-29T17:11:52;20.20;32.60
1812;DHT22;904;47.814;11.134;2024-03-29T17:17:59;20.10;32.20
1812;DHT22;904;47.814;11.134;2024-03-29T17:20:26;20.00;32.70
1812;DHT22;904;47.814;11.134;2024-03-29T17:26:16;19.90;33.20
1812;DHT22;904;47.814;11.134;2024-03-29T17:32:06;19.70;33.60
1812;DHT22;904;47.814;11.134;2024-03-29T17:37:54;19.70;33.20
1812;DHT22;904;47.814;11.134;2024-03-29T17:40:36;19.60;33.00
1812;DHT22;904;47.814;11.134;2024-03-29T17:43:04;19.50;33.10
1812;DHT22;904;47.814;11.134;2024-03-29T17:52:12;19.40;32.10
1812;DHT22;904;47.814;11.134;2024-03-29T17:54:38;19.50;30.10
1812;DHT22;904;47.814;11.134;2024-03-29T18:00:29;19.50;29.90
1812;DHT22;904;47.814;11.134;2024-03-29T18:06:29;19.50;29.30
1812;DHT22;904;47.814;11.134;2024-03-29T18:08:57;19.60;29.00
1812;DHT22;904;47.814;11.134;2024-03-29T18:14:44;19.90;28.20
1812;DHT22;904;47.814;11.134;2024-03-29T18:17:14;19.90;28.10
1812;DHT22;904;47.814;11.134;2024-03-29T18:19:40;19.90;28.00
1812;DHT22;904;47.814;11.134;2024-03-29T18:25:29;20.10;27.20
1812;DHT22;904;47.814;11.134;2024-03-29T18:34:41;20.10;24.10
1812;DHT22;904;47.814;11.134;2024-03-29T18:43:52;20.10;25.70
1812;DHT22;904;47.814;11.134;2024-03-29T18:50:20;19.90;25.60
1812;DHT22;904;47.814;11.134;2024-03-29T18:52:48;19.80;24.20
1812;DHT22;904;47.814;11.134;2024-03-29T18:57:47;19.80;24.60
1812;DHT22;904;47.814;11.134;2024-03-29T19:00:14;19.70;24.60
1812;DHT22;904;47.814;11.134;2024-03-29T19:02:41;19.70;25.00
1812;DHT22;904;47.814;11.134;2024-03-29T19:05:08;19.70;25.20
1812;DHT22;904;47.814;11.134;2024-03-29T19:07:36;19.60;25.80
1812;DHT22;904;47.814;11.134;2024-03-29T19:10:03;19.60;25.80
1812;DHT22;904;47.814;11.134;2024-03-29T19:12:29;19.60;26.20
1812;DHT22;904;47.814;11.134;2024-03-29T19:14:56;19.50;26.40
1812;DHT22;904;47.814;11.134;2024-03-29T19:17:23;19.50;26.50
1812;DHT22;904;47.814;11.134;2024-03-29T19:19:50;19.40;25.50
1812;DHT22;904;47.814;11.134;2024-03-29T19:22:16;19.40;25.00
1812;DHT22;904;47.814;11.134;2024-03-29T19:24:44;19.50;24.40
1812;DHT22;904;47.814;11.134;2024-03-29T19:27:13;19.50;24.20
1812;DHT22;904;47.814;11.134;2024-03-29T19:29:40;19.60;24.30
1812;DHT22;904;47.814;11.134;2024-03-29T19:32:06;19.60;24.20
1812;DHT22;904;47.814;11.134;2024-03-29T19:34:34;19.70;19.40
1812;DHT22;904;47.814;11.134;2024-03-29T19:37:00;19.60;19.30
1812;DHT22;904;47.814;11.134;2024-03-29T19:39:27;19.50;20.10
1812;DHT22;904;47.814;11.134;2024-03-29T19:41:54;19.20;20.80
1812;DHT22;904;47.814;11.134;2024-03-29T19:44:21;19.20;20.90
1812;DHT22;904;47.814;11.134;2024-03-29T19:46:48;19.10;21.40
1812;DHT22;904;47.814;11.134;2024-03-29T19:49:15;19.10;21.80
1812;DHT22;904;47.814;11.134;2024-03-29T19:51:44;19.10;20.10
1812;DHT22;904;47.814;11.134;2024-03-29T19:54:11;19.20;20.00
1812;DHT22;904;47.814;11.134;2024-03-29T19:56:38;19.20;20.00
1812;DHT22;904;47.814;11.134;2024-03-29T19:59:07;19.30;19.70
1812;DHT22;904;47.814;11.134;2024-03-29T20:01:33;19.30;19.30
1812;DHT22;904;47.814;11.134;2024-03-29T20:03:59;19.40;19.50
1812;DHT22;904;47.814;11.134;2024-03-29T20:06:25;19.50;19.40
1812;DHT22;904;47.814;11.134;2024-03-29T20:08:52;19.50;19.60
1812;DHT22;904;47.814;11.134;2024-03-29T20:11:20;19.50;19.90
1812;DHT22;904;47.814;11.134;2024-03-29T20:13:47;19.50;20.40
1812;DHT22;904;47.814;11.134;2024-03-29T20:16:14;19.50;19.40
1812;DHT22;904;47.814;11.134;2024-03-29T20:18:41;19.50;19.30
1812;DHT22;904;47.814;11.134;2024-03-29T20:21:07;19.50;19.40
1812;DHT22;904;47.814;11.134;2024-03-29T20:23:34;19.50;19.80
1812;DHT22;904;47.814;11.134;2024-03-29T20:26:00;19.50;19.70
1812;DHT22;904;47.814;11.134;2024-03-29T20:28:27;19.50;19.80
1812;DHT22;904;47.814;11.134;2024-03-29T20:30:54;19.50;20.00
1812;DHT22;904;47.814;11.134;2024-03-29T20:33:25;19.40;19.80
1812;DHT22;904;47.814;11.134;2024-03-29T20:35:53;19.30;20.60
1812;DHT22;904;47.814;11.134;2024-03-29T20:38:20;19.20;21.30
1812;DHT22;904;47.814;11.134;2024-03-29T20:40:48;19.10;21.50
1812;DHT22;904;47.814;11.134;2024-03-29T20:43:17;19.10;21.60
1812;DHT22;904;47.814;11.134;2024-03-29T20:45:43;19.10;21.30
1812;DHT22;904;47.814;11.134;2024-03-29T20:48:10;18.90;21.70
1812;DHT22;904;47.814;11.134;2024-03-29T20:50:37;18.70;21.90
1812;DHT22;904;47.814;11.134;2024-03-29T20:53:05;18.70;22.00
1812;DHT22;904;47.814;11.134;2024-03-29T20:55:32;18.60;22.30
1812;DHT22;904;47.814;11.134;2024-03-29T20:57:59;18.60;21.50
1812;DHT22;904;47.814;11.134;2024-03-29T21:00:26;18.60;21.80
1812;DHT22;904;47.814;11.134;2024-03-29T21:02:53;18.50;22.30
1812;DHT22;904;47.814;11.134;2024-03-29T21:05:39;18.50;22.90
1812;DHT22;904;47.814;11.134;2024-03-29T21:08:07;18.50;22.30
1812;DHT22;904;47.814;11.134;2024-03-29T21:10:34;18.40;22.00
1812;DHT22;904;47.814;11.134;2024-03-29T21:13:02;18.40;22.90
1812;DHT22;904;47.814;11.134;2024-03-29T21:15:31;18.30;23.10
1812;DHT22;904;47.814;11.134;2024-03-29T21:17:58;18.20;22.60
1812;DHT22;904;47.814;11.134;2024-03-29T21:20:28;18.20;22.70
1812;DHT22;904;47.814;11.134;2024-03-29T21:22:57;18.10;23.70
1812;DHT22;904;47.814;11.134;2024-03-29T21:25:24;18.20;22.50
1812;DHT22;904;47.814;11.134;2024-03-29T21:27:51;18.20;22.70
1812;DHT22;904;47.814;11.134;2024-03-29T21:30:21;18.20;23.00
1812;DHT22;904;47.814;11.134;2024-03-29T21:32:47;18.10;23.00
1812;DHT22;904;47.814;11.134;2024-03-29T21:35:15;18.20;22.80
1812;DHT22;904;47.814;11.134;2024-03-29T21:37:41;18.20;22.50
1812;DHT22;904;47.814;11.134;2024-03-29T21:40:11;18.30;21.00
1812;DHT22;904;47.814;11.134;2024-03-29T21:42:37;18.50;20.10
1812;DHT22;904;47.814;11.134;2024-03-29T21:45:05;18.50;20.40
1812;DHT22;904;47.814;11.134;2024-03-29T21:47:31;18.70;19.10
1812;DHT22;904;47.814;11.134;2024-03-29T21:50:02;18.90;19.40
1812;DHT22;904;47.814;11.134;2024-03-29T21:52:28;18.90;20.00
1812;DHT22;904;47.814;11.134;2024-03-29T21:54:56;18.90;20.20
1812;DHT22;904;47.814;11.134;2024-03-29T21:57:23;18.90;19.80
1812;DHT22;904;47.814;11.134;2024-03-29T21:59:50;18.90;20.40
1812;DHT22;904;47.814;11.134;2024-03-29T22:02:16;18.90;20.80
1812;DHT22;904;47.814;11.134;2024-03-29T22:04:43;18.90;20.50
1812;DHT22;904;47.814;11.134;2024-03-29T22:07:09;18.90;20.20
1812;DHT22;904;47.814;11.134;2024-03-29T22:09:37;18.90;19.90
1812;DHT22;904;47.814;11.134;2024-03-29T22:12:03;19.00;19.00
1812;DHT22;904;47.814;11.134;2024-03-29T22:14:32;19.00;19.00
1812;DHT22;904;47.814;11.134;2024-03-29T22:16:58;19.00;19.80
1812;DHT22;904;47.814;11.134;2024-03-29T22:19:25;18.90;20.00
1812;DHT22;904;47.814;11.134;2024-03-29T22:21:51;18.90;20.10
1812;DHT22;904;47.814;11.134;2024-03-29T22:24:18;18.90;19.40
1812;DHT22;904;47.814;11.134;2024-03-29T22:26:44;18.80;19.20
1812;DHT22;904;47.814;11.134;2024-03-29T22:29:12;18.80;19.60
1812;DHT22;904;47.814;11.134;2024-03-29T22:31:39;18.80;19.00
1812;DHT22;904;47.814;11.134;2024-03-29T22:34:07;18.80;19.30
1812;DHT22;904;47.814;11.134;2024-03-29T22:36:34;18.80;19.80
1812;DHT22;904;47.814;11.134;2024-03-29T22:39:01;18.80;19.90
1812;DHT22;904;47.814;11.134;2024-03-29T22:41:29;18.60;21.00
1812;DHT22;904;47.814;11.134;2024-03-29T22:44:00;18.60;20.60
1812;DHT22;904;47.814;11.134;2024-03-29T22:46:26;18.60;19.90
1812;DHT22;904;47.814;11.134;2024-03-29T22:48:55;18.50;20.70
1812;DHT22;904;47.814;11.134;2024-03-29T22:51:22;18.40;21.90
1812;DHT22;904;47.814;11.134;2024-03-29T22:53:51;18.30;21.60